sensor_id;sensor_type;location;lat;lon;timestamp;temperature;humidity
8008;DHT22;4049;49.468;11.200;2022-12-29T00:00:13;6.80;99.90
8008;DHT22;4049;49.468;11.200;2022-12-29T00:02:40;6.80;99.90
8008;DHT22;4049;49.468;11.200;2022-12-29T00:05:07;6.80;99.90
8008;DHT22;4049;49.468;11.200;2022-12-29T00:07:34;6.80;99.90
8008;DHT22;4049;49.468;11.200;2022-12-29T00:10:01;6.90;99.90
8008;DHT22;4049;49.468;11.200;2022-12-29T00:12:28;7.00;99.90
8008;DHT22;4049;49.468;11.200;2022-12-29T00:15:16;7.00;99.90
8008;DHT22;4049;49.468;11.200;2022-12-29T00:18:00;7.00;99.90
8008;DHT22;4049;49.468;11.200;2022-12-29T00:20:27;7.00;99.90
8008;DHT22;4049;49.468;11.200;2022-12-29T00:23:11;7.10;99.90
8008;DHT22;4049;49.468;11.200;2022-12-29T00:25:55;7.10;99.90
8008;DHT22;4049;49.468;11.200;2022-12-29T00:28:41;7.10;99.90
8008;DHT22;4049;49.468;11.200;2022-12-29T00:31:27;7.10;99.90
8008;DHT22;4049;49.468;11.200;2022-12-29T00:34:11;7.10;99.90
8008;DHT22;4049;49.468;11.200;2022-12-29T00:36:56;7.10;99.90
8008;DHT22;4049;49.468;11.200;2022-12-29T00:39:23;7.10;99.90
8008;DHT22;4049;49.468;11.200;2022-12-29T00:42:08;7.20;99.90
8008;DHT22;4049;49.468;11.200;2022-12-29T00:44:58;7.20;99.90
8008;DHT22;4049;49.468;11.200;2022-12-29T00:47:26;7.20;99.90
8008;DHT22;4049;49.468;11.200;2022-12-29T00:49:53;7.20;99.90
8008;DHT22;4049;49.468;11.200;2022-12-29T00:52:18;7.30;99.90
8008;DHT22;4049;49.468;11.200;2022-12-29T00:54:45;7.30;99.90
8008;DHT22;4049;49.468;11.200;2022-12-29T00:57:12;7.30;99.90
8008;DHT22;4049;49.468;11.200;2022-12-29T00:59:40;7.30;99.90
8008;DHT22;4049;49.468;11.200;2022-12-29T01:02:08;7.30;99.90
8008;DHT22;4049;49.468;11.200;2022-12-29T01:04:37;7.30;99.90
8008;DHT22;4049;49.468;11.200;2022-12-29T01:07:04;7.30;99.90
8008;DHT22;4049;49.468;11.200;2022-12-29T01:09:31;7.30;99.90
8008;DHT22;4049;49.468;11.200;2022-12-29T01:12:16;7.40;99.90
8008;DHT22;4049;49.468;11.200;2022-12-29T01:15:03;7.40;99.90
8008;DHT22;4049;49.468;11.200;2022-12-29T01:17:30;7.40;99.90
8008;DHT22;4049;49.468;11.200;2022-12-29T01:19:58;7.40;99.90
8008;DHT22;4049;49.468;11.200;2022-12-29T01:22:25;7.50;99.90
8008;DHT22;4049;49.468;11.200;2022-12-29T01:24:52;7.50;99.90
8008;DHT22;4049;49.468;11.200;2022-12-29T01:27:19;7.50;99.90
8008;DHT22;4049;49.468;11.200;2022-12-29T01:29:45;7.50;99.90
8008;DHT22;4049;49.468;11.200;2022-12-29T01:32:12;7.50;99.90
8008;DHT22;4049;49.468;11.200;2022-12-29T01:34:39;7.50;99.90
8008;DHT22;4049;49.468;11.200;2022-12-29T01:37:07;7.50;99.90
8008;DHT22;4049;49.468;11.200;2022-12-29T01:39:34;7.50;99.90
8008;DHT22;4049;49.468;11.200;2022-12-29T01:42:01;7.60;99.90
8008;DHT22;4049;49.468;11.200;2022-12-29T01:44:54;7.60;99.90
8008;DHT22;4049;49.468;11.200;2022-12-29T01:47:26;7.60;99.90
8008;DHT22;4049;49.468;11.200;2022-12-29T01:49:57;7.60;99.90
8008;DHT22;4049;49.468;11.200;2022-12-29T01:52:29;7.60;99.90
8008;DHT22;4049;49.468;11.200;2022-12-29T01:54:59;7.60;99.90
8008;DHT22;4049;49.468;11.200;2022-12-29T01:57:30;7.70;99.90
8008;DHT22;4049;49.468;11.200;2022-12-29T02:00:02;7.70;99.90
8008;DHT22;4049;49.468;11.200;2022-12-29T02:02:31;7.80;99.90
8008;DHT22;4049;49.468;11.200;2022-12-29T02:04:58;7.80;99.90
8008;DHT22;4049;49.468;11.200;2022-12-29T02:07:27;7.80;99.90
8008;DHT22;4049;49.468;11.200;2022-12-29T02:09:55;7.80;99.90
8008;DHT22;4049;49.468;11.200;2022-12-29T02:12:23;7.90;99.90
8008;DHT22;4049;49.468;11.200;2022-12-29T02:14:53;7.90;99.90
8008;DHT22;4049;49.468;11.200;2022-12-29T02:17:28;7.90;99.90
8008;DHT22;4049;49.468;11.200;2022-12-29T02:26:17;7.90;99.90
8008;DHT22;4049;49.468;11.200;2022-12-29T02:29:09;7.90;99.90
8008;DHT22;4049;49.468;11.200;2022-12-29T02:31:48;7.90;99.90
8008;DHT22;4049;49.468;11.200;2022-12-29T02:34:22;8.00;99.90
8008;DHT22;4049;49.468;11.200;2022-12-29T02:36:58;7.90;99.90
8008;DHT22;4049;49.468;11.200;2022-12-29T02:39:33;8.00;99.90
8008;DHT22;4049;49.468;11.200;2022-12-29T02:42:09;7.90;99.90
8008;DHT22;4049;49.468;11.200;2022-12-29T02:44:49;8.00;99.90
8008;DHT22;4049;49.468;11.200;2022-12-29T02:47:23;8.00;99.90
8008;DHT22;4049;49.468;11.200;2022-12-29T02:49:57;8.10;99.90
8008;DHT22;4049;49.468;11.200;2022-12-29T02:52:29;8.10;99.90
8008;DHT22;4049;49.468;11.200;2022-12-29T02:54:58;8.10;99.90
8008;DHT22;4049;49.468;11.200;2022-12-29T02:57:32;8.10;99.90
8008;DHT22;4049;49.468;11.200;2022-12-29T03:00:02;8.10;99.90
8008;DHT22;4049;49.468;11.200;2022-12-29T03:02:49;8.10;99.90
8008;DHT22;4049;49.468;11.200;2022-12-29T03:05:47;8.10;99.90
8008;DHT22;4049;49.468;11.200;2022-12-29T03:08:25;8.10;99.90
8008;DHT22;4049;49.468;11.200;2022-12-29T03:10:59;8.10;99.90
8008;DHT22;4049;49.468;11.200;2022-12-29T03:13:32;8.10;99.90
8008;DHT22;4049;49.468;11.200;2022-12-29T03:16:21;8.10;99.90
8008;DHT22;4049;49.468;11.200;2022-12-29T03:18:57;8.10;99.90
8008;DHT22;4049;49.468;11.200;2022-12-29T03:21:32;8.00;99.90
8008;DHT22;4049;49.468;11.200;2022-12-29T03:24:20;8.10;99.90
8008;DHT22;4049;49.468;11.200;2022-12-29T03:26:49;8.10;99.90
8008;DHT22;4049;49.468;11.200;2022-12-29T03:29:20;8.10;99.90
8008;DHT22;4049;49.468;11.200;2022-12-29T03:31:48;8.10;99.90
8008;DHT22;4049;49.468;11.200;2022-12-29T03:34:18;8.10;99.90
8008;DHT22;4049;49.468;11.200;2022-12-29T03:36:49;8.10;99.90
8008;DHT22;4049;49.468;11.200;2022-12-29T03:39:18;8.10;99.90
8008;DHT22;4049;49.468;11.200;2022-12-29T03:41:46;8.10;99.90
8008;DHT22;4049;49.468;11.200;2022-12-29T03:44:15;8.10;99.90
8008;DHT22;4049;49.468;11.200;2022-12-29T03:46:42;8.10;99.90
8008;DHT22;4049;49.468;11.200;2022-12-29T03:49:09;8.10;99.90
8008;DHT22;4049;49.468;11.200;2022-12-29T03:51:37;8.10;99.90
8008;DHT22;4049;49.468;11.200;2022-12-29T03:54:04;8.10;99.90
8008;DHT22;4049;49.468;11.200;2022-12-29T03:56:30;8.10;99.90
8008;DHT22;4049;49.468;11.200;2022-12-29T03:58:57;8.10;99.90
8008;DHT22;4049;49.468;11.200;2022-12-29T04:01:24;8.10;99.90
8008;DHT22;4049;49.468;11.200;2022-12-29T04:03:51;8.10;99.90
8008;DHT22;4049;49.468;11.200;2022-12-29T04:06:18;8.10;99.90
8008;DHT22;4049;49.468;11.200;2022-12-29T04:08:46;8.20;99.90
8008;DHT22;4049;49.468;11.200;2022-12-29T04:11:12;8.20;99.90
8008;DHT22;4049;49.468;11.200;2022-12-29T04:13:39;8.20;99.90
8008;DHT22;4049;49.468;11.200;2022-12-29T04:16:07;8.20;99.90
8008;DHT22;4049;49.468;11.200;2022-12-29T04:18:33;8.20;99.90
8008;DHT22;4049;49.468;11.200;2022-12-29T04:21:00;8.20;99.90
8008;DHT22;4049;49.468;11.200;2022-12-29T04:23:28;8.20;99.90
8008;DHT22;4049;49.468;11.200;2022-12-29T04:25:57;8.20;99.90
8008;DHT22;4049;49.468;11.200;2022-12-29T04:28:24;8.20;99.90
8008;DHT22;4049;49.468;11.200;2022-12-29T04:30:51;8.20;99.90
8008;DHT22;4049;49.468;11.200;2022-12-29T04:33:18;8.20;99.90
8008;DHT22;4049;49.468;11.200;2022-12-29T04:35:45;8.20;99.90
8008;DHT22;4049;49.468;11.200;2022-12-29T04:38:12;8.10;99.90
8008;DHT22;4049;49.468;11.200;2022-12-29T04:40:40;8.10;99.90
8008;DHT22;4049;49.468;11.200;2022-12-29T04:43:09;8.10;99.90
8008;DHT22;4049;49.468;11.200;2022-12-29T04:45:36;8.20;99.90
8008;DHT22;4049;49.468;11.200;2022-12-29T04:48:03;8.10;99.90
8008;DHT22;4049;49.468;11.200;2022-12-29T04:50:30;8.10;99.90
8008;DHT22;4049;49.468;11.200;2022-12-29T04:52:57;8.10;99.90
8008;DHT22;4049;49.468;11.200;2022-12-29T04:55:23;8.10;99.90
8008;DHT22;4049;49.468;11.200;2022-12-29T04:57:50;8.10;99.90
8008;DHT22;4049;49.468;11.200;2022-12-29T05:00:18;8.10;99.90
8008;DHT22;4049;49.468;11.200;2022-12-29T05:02:45;8.10;99.90
8008;DHT22;4049;49.468;11.200;2022-12-29T05:05:12;8.10;99.90
8008;DHT22;4049;49.468;11.200;2022-12-29T05:07:39;8.10;99.90
8008;DHT22;4049;49.468;11.200;2022-12-29T05:10:07;8.20;99.90
8008;DHT22;4049;49.468;11.200;2022-12-29T05:12:35;8.20;99.90
8008;DHT22;4049;49.468;11.200;2022-12-29T05:15:03;8.10;99.90
8008;DHT22;4049;49.468;11.200;2022-12-29T05:17:31;8.20;99.90
8008;DHT22;4049;49.468;11.200;2022-12-29T05:19:58;8.10;99.90
8008;DHT22;4049;49.468;11.200;2022-12-29T05:22:25;8.10;99.90
8008;DHT22;4049;49.468;11.200;2022-12-29T05:24:51;8.10;99.90
8008;DHT22;4049;49.468;11.200;2022-12-29T05:27:20;8.10;99.90
8008;DHT22;4049;49.468;11.200;2022-12-29T05:29:47;8.10;99.90
8008;DHT22;4049;49.468;11.200;2022-12-29T05:32:14;8.10;99.90
8008;DHT22;4049;49.468;11.200;2022-12-29T05:34:42;8.20;99.90
8008;DHT22;4049;49.468;11.200;2022-12-29T05:37:09;8.20;99.90
8008;DHT22;4049;49.468;11.200;2022-12-29T05:39:36;8.20;99.90
8008;DHT22;4049;49.468;11.200;2022-12-29T05:42:03;8.20;99.90
8008;DHT22;4049;49.468;11.200;2022-12-29T05:44:30;8.30;99.90
8008;DHT22;4049;49.468;11.200;2022-12-29T05:46:56;8.20;99.90
8008;DHT22;4049;49.468;11.200;2022-12-29T05:49:23;8.20;99.90
8008;DHT22;4049;49.468;11.200;2022-12-29T05:51:51;8.20;99.90
8008;DHT22;4049;49.468;11.200;2022-12-29T05:54:18;8.20;99.90
8008;DHT22;4049;49.468;11.200;2022-12-29T05:56:45;8.20;99.90
8008;DHT22;4049;49.468;11.200;2022-12-29T05:59:12;8.20;99.90
8008;DHT22;4049;49.468;11.200;2022-12-29T06:01:39;8.10;99.90
8008;DHT22;4049;49.468;11.200;2022-12-29T06:04:05;8.10;99.90
8008;DHT22;4049;49.468;11.200;2022-12-29T06:06:32;8.10;99.90
8008;DHT22;4049;49.468;11.200;2022-12-29T06:09:00;8.10;99.90
8008;DHT22;4049;49.468;11.200;2022-12-29T06:11:27;8.10;99.90
8008;DHT22;4049;49.468;11.200;2022-12-29T06:13:54;8.10;99.90
8008;DHT22;4049;49.468;11.200;2022-12-29T06:16:21;8.00;99.90
8008;DHT22;4049;49.468;11.200;2022-12-29T06:18:47;8.00;99.90
8008;DHT22;4049;49.468;11.200;2022-12-29T06:21:14;8.00;99.90
8008;DHT22;4049;49.468;11.200;2022-12-29T06:23:41;8.00;99.90
8008;DHT22;4049;49.468;11.200;2022-12-29T06:26:09;7.90;99.90
8008;DHT22;4049;49.468;11.200;2022-12-29T06:28:36;7.90;99.90
8008;DHT22;4049;49.468;11.200;2022-12-29T06:31:03;7.90;99.90
8008;DHT22;4049;49.468;11.200;2022-12-29T06:33:30;7.90;99.90
8008;DHT22;4049;49.468;11.200;2022-12-29T06:35:56;7.90;99.90
8008;DHT22;4049;49.468;11.200;2022-12-29T06:38:23;7.80;99.90
8008;DHT22;4049;49.468;11.200;2022-12-29T06:40:50;7.80;99.90
8008;DHT22;4049;49.468;11.200;2022-12-29T06:43:18;7.80;99.90
8008;DHT22;4049;49.468;11.200;2022-12-29T06:45:45;7.80;99.90
8008;DHT22;4049;49.468;11.200;2022-12-29T06:48:12;7.70;99.90
8008;DHT22;4049;49.468;11.200;2022-12-29T06:50:38;7.70;99.90
8008;DHT22;4049;49.468;11.200;2022-12-29T06:53:05;7.60;99.90
8008;DHT22;4049;49.468;11.200;2022-12-29T06:55:32;7.60;99.90
8008;DHT22;4049;49.468;11.200;2022-12-29T06:57:59;7.60;99.90
8008;DHT22;4049;49.468;11.200;2022-12-29T07:00:28;7.60;99.90
8008;DHT22;4049;49.468;11.200;2022-12-29T07:02:55;7.60;99.90
8008;DHT22;4049;49.468;11.200;2022-12-29T07:05:23;7.50;99.90
8008;DHT22;4049;49.468;11.200;2022-12-29T07:07:51;7.50;99.90
8008;DHT22;4049;49.468;11.200;2022-12-29T07:10:18;7.50;99.90
8008;DHT22;4049;49.468;11.200;2022-12-29T07:12:44;7.50;99.90
8008;DHT22;4049;49.468;11.200;2022-12-29T07:15:11;7.50;99.90
8008;DHT22;4049;49.468;11.200;2022-12-29T07:17:40;7.40;99.90
8008;DHT22;4049;49.468;11.200;2022-12-29T07:20:08;7.40;99.90
8008;DHT22;4049;49.468;11.200;2022-12-29T07:22:35;7.40;99.90
8008;DHT22;4049;49.468;11.200;2022-12-29T07:25:02;7.40;99.90
8008;DHT22;4049;49.468;11.200;2022-12-29T07:27:29;7.40;99.90
8008;DHT22;4049;49.468;11.200;2022-12-29T07:29:56;7.40;99.90
8008;DHT22;4049;49.468;11.200;2022-12-29T07:32:22;7.40;99.90
8008;DHT22;4049;49.468;11.200;2022-12-29T07:34:51;7.40;99.90
8008;DHT22;4049;49.468;11.200;2022-12-29T07:37:18;7.40;99.90
8008;DHT22;4049;49.468;11.200;2022-12-29T07:39:45;7.40;99.90
8008;DHT22;4049;49.468;11.200;2022-12-29T07:42:12;7.40;99.90
8008;DHT22;4049;49.468;11.200;2022-12-29T07:44:39;7.40;99.90
8008;DHT22;4049;49.468;11.200;2022-12-29T07:47:05;7.40;99.90
8008;DHT22;4049;49.468;11.200;2022-12-29T07:49:32;7.50;99.90
8008;DHT22;4049;49.468;11.200;2022-12-29T07:52:00;7.50;99.90
8008;DHT22;4049;49.468;11.200;2022-12-29T07:54:27;7.40;99.90
8008;DHT22;4049;49.468;11.200;2022-12-29T07:56:54;7.40;99.90
8008;DHT22;4049;49.468;11.200;2022-12-29T07:59:21;7.40;99.90
8008;DHT22;4049;49.468;11.200;2022-12-29T08:01:48;7.40;99.90
8008;DHT22;4049;49.468;11.200;2022-12-29T08:04:15;7.50;99.90
8008;DHT22;4049;49.468;11.200;2022-12-29T08:06:41;7.50;99.90
8008;DHT22;4049;49.468;11.200;2022-12-29T08:09:10;7.50;99.90
8008;DHT22;4049;49.468;11.200;2022-12-29T08:11:36;7.50;99.90
8008;DHT22;4049;49.468;11.200;2022-12-29T08:14:04;7.50;99.90
8008;DHT22;4049;49.468;11.200;2022-12-29T08:16:30;7.60;99.90
8008;DHT22;4049;49.468;11.200;2022-12-29T08:18:58;7.60;99.90
8008;DHT22;4049;49.468;11.200;2022-12-29T08:21:24;7.60;99.90
8008;DHT22;4049;49.468;11.200;2022-12-29T08:23:51;7.60;99.90
8008;DHT22;4049;49.468;11.200;2022-12-29T08:26:21;7.60;99.90
8008;DHT22;4049;49.468;11.200;2022-12-29T08:28:48;7.70;99.90
8008;DHT22;4049;49.468;11.200;2022-12-29T08:31:15;7.70;99.90
8008;DHT22;4049;49.468;11.200;2022-12-29T08:33:41;7.70;99.90
8008;DHT22;4049;49.468;11.200;2022-12-29T08:36:09;7.80;99.90
8008;DHT22;4049;49.468;11.200;2022-12-29T08:38:36;7.90;99.90
8008;DHT22;4049;49.468;11.200;2022-12-29T08:41:03;7.90;99.90
8008;DHT22;4049;49.468;11.200;2022-12-29T08:43:31;8.00;99.90
8008;DHT22;4049;49.468;11.200;2022-12-29T08:45:58;8.10;99.90
8008;DHT22;4049;49.468;11.200;2022-12-29T08:48:26;8.20;99.90
8008;DHT22;4049;49.468;11.200;2022-12-29T08:50:53;8.20;99.90
8008;DHT22;4049;49.468;11.200;2022-12-29T08:53:20;8.30;99.90
8008;DHT22;4049;49.468;11.200;2022-12-29T08:55:53;8.40;99.90
8008;DHT22;4049;49.468;11.200;2022-12-29T08:58:20;8.50;99.90
8008;DHT22;4049;49.468;11.200;2022-12-29T09:00:49;8.60;99.90
8008;DHT22;4049;49.468;11.200;2022-12-29T09:03:15;8.70;99.90
8008;DHT22;4049;49.468;11.200;2022-12-29T09:05:42;8.70;99.90
8008;DHT22;4049;49.468;11.200;2022-12-29T09:08:09;8.80;99.90
8008;DHT22;4049;49.468;11.200;2022-12-29T09:10:36;8.90;99.90
8008;DHT22;4049;49.468;11.200;2022-12-29T09:13:03;9.00;99.90
8008;DHT22;4049;49.468;11.200;2022-12-29T09:15:30;9.00;99.90
8008;DHT22;4049;49.468;11.200;2022-12-29T09:17:58;9.10;99.90
8008;DHT22;4049;49.468;11.200;2022-12-29T09:20:25;9.20;99.90
8008;DHT22;4049;49.468;11.200;2022-12-29T09:22:52;9.20;99.90
8008;DHT22;4049;49.468;11.200;2022-12-29T09:25:19;9.30;99.90
8008;DHT22;4049;49.468;11.200;2022-12-29T09:27:49;9.50;99.90
8008;DHT22;4049;49.468;11.200;2022-12-29T09:30:18;9.60;99.90
8008;DHT22;4049;49.468;11.200;2022-12-29T09:32:45;9.60;99.90
8008;DHT22;4049;49.468;11.200;2022-12-29T09:35:14;9.70;99.90
8008;DHT22;4049;49.468;11.200;2022-12-29T09:37:42;9.80;99.90
8008;DHT22;4049;49.468;11.200;2022-12-29T09:40:26;9.90;99.90
8008;DHT22;4049;49.468;11.200;2022-12-29T09:43:23;10.00;99.90
8008;DHT22;4049;49.468;11.200;2022-12-29T09:45:58;10.00;99.90
8008;DHT22;4049;49.468;11.200;2022-12-29T09:48:30;10.10;99.90
8008;DHT22;4049;49.468;11.200;2022-12-29T09:51:03;10.10;99.90
8008;DHT22;4049;49.468;11.200;2022-12-29T09:53:37;10.10;99.90
8008;DHT22;4049;49.468;11.200;2022-12-29T09:56:11;10.20;99.90
8008;DHT22;4049;49.468;11.200;2022-12-29T09:58:42;10.20;99.90
8008;DHT22;4049;49.468;11.200;2022-12-29T10:01:17;10.20;99.90
8008;DHT22;4049;49.468;11.200;2022-12-29T10:03:50;10.30;99.90
8008;DHT22;4049;49.468;11.200;2022-12-29T10:06:22;10.30;99.90
8008;DHT22;4049;49.468;11.200;2022-12-29T10:08:56;10.30;99.90
8008;DHT22;4049;49.468;11.200;2022-12-29T10:11:45;10.30;99.90
8008;DHT22;4049;49.468;11.200;2022-12-29T10:14:27;10.30;99.90
8008;DHT22;4049;49.468;11.200;2022-12-29T10:17:00;10.40;99.90
8008;DHT22;4049;49.468;11.200;2022-12-29T10:19:39;10.40;99.90
8008;DHT22;4049;49.468;11.200;2022-12-29T10:22:19;10.40;99.90
8008;DHT22;4049;49.468;11.200;2022-12-29T10:24:52;10.40;99.90
8008;DHT22;4049;49.468;11.200;2022-12-29T10:27:21;10.40;99.90
8008;DHT22;4049;49.468;11.200;2022-12-29T10:29:50;10.30;99.90
8008;DHT22;4049;49.468;11.200;2022-12-29T10:32:25;10.30;99.90
8008;DHT22;4049;49.468;11.200;2022-12-29T10:34:57;10.30;99.90
8008;DHT22;4049;49.468;11.200;2022-12-29T10:37:32;10.30;99.90
8008;DHT22;4049;49.468;11.200;2022-12-29T10:40:11;10.30;99.90
8008;DHT22;4049;49.468;11.200;2022-12-29T10:42:42;10.30;99.90
8008;DHT22;4049;49.468;11.200;2022-12-29T10:45:14;10.40;99.90
8008;DHT22;4049;49.468;11.200;2022-12-29T10:47:49;10.40;99.90
8008;DHT22;4049;49.468;11.200;2022-12-29T10:50:17;10.40;99.90
8008;DHT22;4049;49.468;11.200;2022-12-29T10:52:47;10.40;99.90
8008;DHT22;4049;49.468;11.200;2022-12-29T10:55:17;10.40;99.90
8008;DHT22;4049;49.468;11.200;2022-12-29T10:57:46;10.40;99.90
8008;DHT22;4049;49.468;11.200;2022-12-29T11:00:16;10.50;99.90
8008;DHT22;4049;49.468;11.200;2022-12-29T11:03:02;10.50;99.90
8008;DHT22;4049;49.468;11.200;2022-12-29T11:05:35;10.50;99.90
8008;DHT22;4049;49.468;11.200;2022-12-29T11:08:10;10.60;99.90
8008;DHT22;4049;49.468;11.200;2022-12-29T11:10:39;10.70;99.90
8008;DHT22;4049;49.468;11.200;2022-12-29T11:13:13;10.70;99.90
8008;DHT22;4049;49.468;11.200;2022-12-29T11:15:42;10.80;99.90
8008;DHT22;4049;49.468;11.200;2022-12-29T11:18:20;10.80;99.90
8008;DHT22;4049;49.468;11.200;2022-12-29T11:20:48;10.90;99.90
8008;DHT22;4049;49.468;11.200;2022-12-29T11:23:26;10.90;99.90
8008;DHT22;4049;49.468;11.200;2022-12-29T11:26:16;11.00;99.90
8008;DHT22;4049;49.468;11.200;2022-12-29T11:28:44;11.10;99.90
8008;DHT22;4049;49.468;11.200;2022-12-29T11:31:16;11.10;99.90
8008;DHT22;4049;49.468;11.200;2022-12-29T11:33:44;11.20;99.90
8008;DHT22;4049;49.468;11.200;2022-12-29T11:36:14;11.30;99.90
8008;DHT22;4049;49.468;11.200;2022-12-29T11:38:46;11.40;99.90
8008;DHT22;4049;49.468;11.200;2022-12-29T11:41:20;11.40;99.90
8008;DHT22;4049;49.468;11.200;2022-12-29T11:43:48;11.40;99.90
8008;DHT22;4049;49.468;11.200;2022-12-29T11:46:19;11.50;99.90
8008;DHT22;4049;49.468;11.200;2022-12-29T11:48:47;11.50;99.90
8008;DHT22;4049;49.468;11.200;2022-12-29T11:51:21;11.50;99.90
8008;DHT22;4049;49.468;11.200;2022-12-29T11:53:52;11.50;99.90
8008;DHT22;4049;49.468;11.200;2022-12-29T11:56:30;11.50;99.90
8008;DHT22;4049;49.468;11.200;2022-12-29T11:58:57;11.70;99.90
8008;DHT22;4049;49.468;11.200;2022-12-29T12:01:30;11.90;99.90
8008;DHT22;4049;49.468;11.200;2022-12-29T12:04:02;12.00;99.90
8008;DHT22;4049;49.468;11.200;2022-12-29T12:06:33;12.00;99.90
8008;DHT22;4049;49.468;11.200;2022-12-29T12:09:05;12.00;99.90
8008;DHT22;4049;49.468;11.200;2022-12-29T12:11:36;12.00;99.90
8008;DHT22;4049;49.468;11.200;2022-12-29T12:14:11;12.00;99.90
8008;DHT22;4049;49.468;11.200;2022-12-29T12:16:41;12.10;99.90
8008;DHT22;4049;49.468;11.200;2022-12-29T12:19:13;12.10;99.90
8008;DHT22;4049;49.468;11.200;2022-12-29T12:21:47;12.20;99.90
8008;DHT22;4049;49.468;11.200;2022-12-29T12:24:34;12.20;99.90
8008;DHT22;4049;49.468;11.200;2022-12-29T12:27:10;12.20;99.90
8008;DHT22;4049;49.468;11.200;2022-12-29T12:29:45;12.30;99.90
8008;DHT22;4049;49.468;11.200;2022-12-29T12:32:16;12.40;99.90
8008;DHT22;4049;49.468;11.200;2022-12-29T12:34:46;12.30;99.90
8008;DHT22;4049;49.468;11.200;2022-12-29T12:37:43;12.40;99.90
8008;DHT22;4049;49.468;11.200;2022-12-29T12:40:40;12.40;99.90
8008;DHT22;4049;49.468;11.200;2022-12-29T12:43:22;12.30;99.90
8008;DHT22;4049;49.468;11.200;2022-12-29T12:46:01;12.30;99.90
8008;DHT22;4049;49.468;11.200;2022-12-29T12:48:49;12.30;99.90
8008;DHT22;4049;49.468;11.200;2022-12-29T12:51:25;12.30;99.90
8008;DHT22;4049;49.468;11.200;2022-12-29T12:54:05;12.30;99.90
8008;DHT22;4049;49.468;11.200;2022-12-29T12:56:47;12.30;99.90
8008;DHT22;4049;49.468;11.200;2022-12-29T12:59:30;12.30;99.90
8008;DHT22;4049;49.468;11.200;2022-12-29T13:02:06;12.20;99.90
8008;DHT22;4049;49.468;11.200;2022-12-29T13:04:52;12.20;99.90
8008;DHT22;4049;49.468;11.200;2022-12-29T13:07:32;12.20;99.90
8008;DHT22;4049;49.468;11.200;2022-12-29T13:10:16;12.10;99.90
8008;DHT22;4049;49.468;11.200;2022-12-29T13:12:52;12.10;99.90
8008;DHT22;4049;49.468;11.200;2022-12-29T13:15:32;12.10;99.90
8008;DHT22;4049;49.468;11.200;2022-12-29T13:18:06;12.00;99.90
8008;DHT22;4049;49.468;11.200;2022-12-29T13:20:41;12.00;99.90
8008;DHT22;4049;49.468;11.200;2022-12-29T13:23:16;12.00;99.90
8008;DHT22;4049;49.468;11.200;2022-12-29T13:25:51;11.90;99.90
8008;DHT22;4049;49.468;11.200;2022-12-29T13:28:28;11.90;99.90
8008;DHT22;4049;49.468;11.200;2022-12-29T13:31:00;11.90;99.90
8008;DHT22;4049;49.468;11.200;2022-12-29T13:33:37;11.90;99.90
8008;DHT22;4049;49.468;11.200;2022-12-29T13:36:13;11.80;99.90
8008;DHT22;4049;49.468;11.200;2022-12-29T13:38:47;11.80;99.90
8008;DHT22;4049;49.468;11.200;2022-12-29T13:41:20;11.80;99.90
8008;DHT22;4049;49.468;11.200;2022-12-29T13:43:49;11.70;99.90
8008;DHT22;4049;49.468;11.200;2022-12-29T13:46:21;11.70;99.90
8008;DHT22;4049;49.468;11.200;2022-12-29T13:48:52;11.70;99.90
8008;DHT22;4049;49.468;11.200;2022-12-29T13:51:21;11.60;99.90
8008;DHT22;4049;49.468;11.200;2022-12-29T13:54:00;11.70;99.90
8008;DHT22;4049;49.468;11.200;2022-12-29T13:56:34;11.70;99.90
8008;DHT22;4049;49.468;11.200;2022-12-29T13:59:10;11.70;99.90
8008;DHT22;4049;49.468;11.200;2022-12-29T14:01:43;11.70;99.90
8008;DHT22;4049;49.468;11.200;2022-12-29T14:04:13;11.60;99.90
8008;DHT22;4049;49.468;11.200;2022-12-29T14:06:41;11.60;99.90
8008;DHT22;4049;49.468;11.200;2022-12-29T14:09:30;11.60;99.90
8008;DHT22;4049;49.468;11.200;2022-12-29T14:11:58;11.60;99.90
8008;DHT22;4049;49.468;11.200;2022-12-29T14:14:29;11.60;99.90
8008;DHT22;4049;49.468;11.200;2022-12-29T14:17:08;11.50;99.90
8008;DHT22;4049;49.468;11.200;2022-12-29T14:19:40;11.50;99.90
8008;DHT22;4049;49.468;11.200;2022-12-29T14:22:10;11.50;99.90
8008;DHT22;4049;49.468;11.200;2022-12-29T14:24:42;11.50;99.90
8008;DHT22;4049;49.468;11.200;2022-12-29T14:33:30;11.50;99.90
8008;DHT22;4049;49.468;11.200;2022-12-29T14:35:57;11.40;99.90
8008;DHT22;4049;49.468;11.200;2022-12-29T14:38:44;11.40;99.90
8008;DHT22;4049;49.468;11.200;2022-12-29T14:41:26;11.40;99.90
8008;DHT22;4049;49.468;11.200;2022-12-29T14:43:59;11.30;99.90
8008;DHT22;4049;49.468;11.200;2022-12-29T14:46:42;11.30;99.90
8008;DHT22;4049;49.468;11.200;2022-12-29T14:49:16;11.30;99.90
8008;DHT22;4049;49.468;11.200;2022-12-29T14:51:43;11.20;99.90
8008;DHT22;4049;49.468;11.200;2022-12-29T14:54:51;11.20;99.90
8008;DHT22;4049;49.468;11.200;2022-12-29T14:57:26;11.20;99.90
8008;DHT22;4049;49.468;11.200;2022-12-29T14:59:57;11.20;99.90
8008;DHT22;4049;49.468;11.200;2022-12-29T15:02:26;11.20;99.90
8008;DHT22;4049;49.468;11.200;2022-12-29T15:05:00;11.10;99.90
8008;DHT22;4049;49.468;11.200;2022-12-29T15:07:29;11.10;99.90
8008;DHT22;4049;49.468;11.200;2022-12-29T15:10:00;11.00;99.90
8008;DHT22;4049;49.468;11.200;2022-12-29T15:12:35;11.10;99.90
8008;DHT22;4049;49.468;11.200;2022-12-29T15:15:17;11.00;99.90
8008;DHT22;4049;49.468;11.200;2022-12-29T15:17:44;11.00;99.90
8008;DHT22;4049;49.468;11.200;2022-12-29T15:20:21;11.00;99.90
8008;DHT22;4049;49.468;11.200;2022-12-29T15:22:51;11.00;99.90
8008;DHT22;4049;49.468;11.200;2022-12-29T15:25:19;11.00;99.90
8008;DHT22;4049;49.468;11.200;2022-12-29T15:27:49;11.00;99.90
8008;DHT22;4049;49.468;11.200;2022-12-29T15:30:17;10.90;99.90
8008;DHT22;4049;49.468;11.200;2022-12-29T15:32:44;10.90;99.90
8008;DHT22;4049;49.468;11.200;2022-12-29T15:35:25;10.90;99.90
8008;DHT22;4049;49.468;11.200;2022-12-29T15:37:52;10.90;99.90
8008;DHT22;4049;49.468;11.200;2022-12-29T15:40:24;10.90;99.90
8008;DHT22;4049;49.468;11.200;2022-12-29T15:43:06;10.90;99.90
8008;DHT22;4049;49.468;11.200;2022-12-29T15:45:37;10.80;99.90
8008;DHT22;4049;49.468;11.200;2022-12-29T15:48:07;10.80;99.90
8008;DHT22;4049;49.468;11.200;2022-12-29T15:50:38;10.80;99.90
8008;DHT22;4049;49.468;11.200;2022-12-29T15:53:11;10.80;99.90
8008;DHT22;4049;49.468;11.200;2022-12-29T15:55:40;10.80;99.90
8008;DHT22;4049;49.468;11.200;2022-12-29T15:58:19;10.70;99.90
8008;DHT22;4049;49.468;11.200;2022-12-29T16:00:48;10.70;99.90
8008;DHT22;4049;49.468;11.200;2022-12-29T16:03:16;10.70;99.90
8008;DHT22;4049;49.468;11.200;2022-12-29T16:05:50;10.70;99.90
8008;DHT22;4049;49.468;11.200;2022-12-29T16:08:34;10.60;99.90
8008;DHT22;4049;49.468;11.200;2022-12-29T16:11:05;10.60;99.90
8008;DHT22;4049;49.468;11.200;2022-12-29T16:13:38;10.50;99.90
8008;DHT22;4049;49.468;11.200;2022-12-29T16:16:09;10.50;99.90
8008;DHT22;4049;49.468;11.200;2022-12-29T16:18:40;10.50;99.90
8008;DHT22;4049;49.468;11.200;2022-12-29T16:21:16;10.50;99.90
8008;DHT22;4049;49.468;11.200;2022-12-29T16:23:50;10.40;99.90
8008;DHT22;4049;49.468;11.200;2022-12-29T16:26:18;10.50;99.90
8008;DHT22;4049;49.468;11.200;2022-12-29T16:28:48;10.50;99.90
8008;DHT22;4049;49.468;11.200;2022-12-29T16:31:20;10.50;99.90
8008;DHT22;4049;49.468;11.200;2022-12-29T16:33:49;10.50;99.90